createdAt,value
2022-10-19T00:01:05.847Z,10.90
2022-10-19T00:03:34.365Z,11.75
2022-10-19T00:06:10.826Z,9.95
2022-10-19T00:08:38.849Z,9.07
2022-10-19T00:11:06.862Z,10.23
2022-10-19T00:13:34.654Z,7.50
2022-10-19T00:16:02.900Z,10.82
2022-10-19T00:18:31.102Z,8.52
2022-10-19T00:21:05.891Z,11.02
2022-10-19T00:23:33.654Z,8.32
2022-10-19T00:26:01.670Z,7.68
2022-10-19T00:28:29.550Z,11.10
2022-10-19T00:30:57.353Z,7.40
2022-10-19T00:33:37.872Z,7.63
2022-10-19T00:36:06.822Z,6.70
2022-10-19T00:38:34.651Z,11.75
2022-10-19T00:41:03.147Z,13.48
2022-10-19T00:43:31.974Z,11.18
2022-10-19T00:45:59.740Z,10.27
2022-10-19T00:48:30.949Z,8.98
2022-10-19T00:51:00.782Z,10.43
2022-10-19T00:53:29.910Z,8.38
2022-10-19T00:55:58.509Z,10.70
2022-10-19T00:58:29.248Z,9.82
2022-10-19T01:01:04.059Z,8.00
2022-10-19T01:03:32.166Z,18.33
2022-10-19T01:06:00.443Z,9.60
2022-10-19T01:08:28.580Z,8.73
2022-10-19T01:10:59.283Z,10.70
2022-10-19T01:13:51.964Z,9.50
2022-10-19T01:16:23.563Z,7.75
2022-10-19T01:19:01.005Z,9.95
2022-10-19T01:21:58.233Z,10.43
2022-10-19T01:24:40.652Z,12.07
2022-10-19T01:27:11.641Z,7.07
2022-10-19T01:29:58.312Z,11.60
2022-10-19T01:32:52.460Z,14.02
2022-10-19T01:35:47.028Z,8.00
2022-10-19T01:38:24.007Z,13.20
2022-10-19T01:40:55.078Z,13.43
2022-10-19T01:45:56.213Z,12.35
2022-10-19T01:48:27.846Z,19.80
2022-10-19T01:51:01.332Z,20.35
2022-10-19T01:53:31.071Z,11.18
2022-10-19T01:56:01.018Z,7.47
2022-10-19T01:58:30.578Z,9.10
2022-10-19T02:01:00.812Z,13.63
2022-10-19T02:03:29.394Z,14.20
2022-10-19T02:05:57.392Z,12.38
2022-10-19T02:08:31.149Z,16.73
2022-10-19T02:10:59.954Z,18.30
2022-10-19T02:13:28.888Z,20.23
2022-10-19T02:15:59.352Z,20.58
2022-10-19T02:18:41.417Z,31.33
2022-10-19T02:21:12.299Z,26.65
2022-10-19T02:23:40.390Z,30.45
2022-10-19T02:26:08.107Z,26.75
2022-10-19T02:28:36.229Z,28.00
2022-10-19T02:31:03.988Z,27.55
2022-10-19T02:33:31.830Z,33.13
2022-10-19T02:36:00.099Z,27.92
2022-10-19T02:38:28.031Z,32.55
2022-10-19T02:41:03.660Z,33.67
2022-10-19T02:43:33.016Z,29.98
2022-10-19T02:46:07.262Z,33.75
2022-10-19T02:48:35.883Z,31.73
2022-10-19T02:51:03.578Z,39.28
2022-10-19T02:53:31.197Z,39.10
2022-10-19T02:55:59.043Z,43.70
2022-10-19T02:58:26.845Z,30.67
2022-10-19T03:00:54.694Z,42.05
2022-10-19T03:03:22.439Z,36.70
2022-10-19T03:05:50.034Z,46.15
2022-10-19T03:08:17.874Z,45.13
2022-10-19T03:10:45.698Z,63.40
2022-10-19T03:13:13.367Z,51.22
2022-10-19T03:15:41.090Z,42.28
2022-10-19T03:18:08.994Z,43.22
2022-10-19T03:20:36.707Z,54.90
2022-10-19T03:23:04.507Z,42.45
2022-10-19T03:25:32.422Z,44.20
2022-10-19T03:28:00.435Z,35.95
2022-10-19T03:30:28.445Z,36.25
2022-10-19T03:32:56.117Z,39.55
2022-10-19T03:35:23.866Z,31.02
2022-10-19T03:37:51.659Z,34.95
2022-10-19T03:40:19.350Z,35.92
2022-10-19T03:42:47.041Z,33.58
2022-10-19T03:45:15.021Z,40.92
2022-10-19T03:47:42.970Z,40.47
2022-10-19T03:50:13.166Z,40.88
2022-10-19T03:52:40.876Z,34.83
2022-10-19T03:55:08.796Z,42.70
2022-10-19T03:57:36.726Z,37.45
2022-10-19T04:00:08.392Z,34.00
2022-10-19T04:02:41.943Z,33.17
2022-10-19T04:05:09.785Z,33.17
2022-10-19T04:07:37.345Z,32.25
2022-10-19T04:10:05.038Z,42.53
2022-10-19T04:12:32.601Z,36.58
2022-10-19T04:15:00.068Z,32.83
2022-10-19T04:17:27.627Z,34.72
2022-10-19T04:19:55.201Z,31.90
2022-10-19T04:22:22.768Z,33.00
2022-10-19T04:24:50.272Z,36.38
2022-10-19T04:27:18.070Z,29.35
2022-10-19T04:29:45.794Z,27.52
2022-10-19T04:32:13.696Z,28.90
2022-10-19T04:34:41.378Z,29.95
2022-10-19T04:37:08.979Z,26.67
2022-10-19T04:39:39.604Z,26.92
2022-10-19T04:42:07.403Z,29.08
2022-10-19T04:44:35.089Z,21.10
2022-10-19T04:47:02.732Z,29.48
2022-10-19T04:49:30.323Z,23.35
2022-10-19T04:51:57.998Z,24.27
2022-10-19T04:54:25.704Z,23.95
2022-10-19T04:56:54.026Z,24.65
2022-10-19T04:59:21.783Z,22.85
2022-10-19T05:01:49.390Z,22.63
2022-10-19T05:04:17.039Z,28.15
2022-10-19T05:06:46.023Z,22.98
2022-10-19T05:09:14.098Z,22.80
2022-10-19T05:11:41.831Z,21.63
2022-10-19T05:14:09.549Z,20.45
2022-10-19T05:16:37.357Z,17.48
2022-10-19T05:19:05.010Z,17.80
2022-10-19T05:21:32.931Z,20.50
2022-10-19T05:24:00.561Z,21.38
2022-10-19T05:26:29.076Z,23.92
2022-10-19T05:28:59.296Z,19.48
2022-10-19T05:31:28.463Z,19.75
2022-10-19T05:33:56.560Z,18.40
2022-10-19T05:36:26.431Z,18.75
2022-10-19T05:38:57.949Z,16.15
2022-10-19T05:41:26.402Z,16.67
2022-10-19T05:44:01.224Z,22.33
2022-10-19T05:46:29.736Z,20.05
2022-10-19T05:48:58.189Z,19.27
2022-10-19T05:51:27.241Z,21.67
2022-10-19T05:53:55.355Z,21.02
2022-10-19T05:56:26.233Z,20.58
2022-10-19T06:01:21.550Z,17.90
2022-10-19T06:03:52.187Z,21.88
2022-10-19T06:06:20.315Z,19.10
2022-10-19T06:08:48.380Z,20.90
2022-10-19T06:11:17.870Z,17.90
2022-10-19T06:13:46.551Z,22.23
2022-10-19T06:16:15.343Z,16.98
2022-10-19T06:18:43.073Z,18.40
2022-10-19T06:21:14.666Z,18.77
2022-10-19T06:26:11.796Z,23.30
2022-10-19T06:28:40.951Z,22.40
2022-10-19T06:31:09.328Z,17.08
2022-10-19T06:33:40.347Z,29.23
2022-10-19T06:36:08.063Z,32.50
2022-10-19T06:38:35.800Z,19.50
2022-10-19T06:41:03.529Z,19.00
2022-10-19T06:43:33.836Z,25.83
2022-10-19T06:46:06.765Z,21.38
2022-10-19T06:48:35.329Z,27.05
2022-10-19T06:51:06.230Z,18.52
2022-10-19T06:53:35.078Z,23.63
2022-10-19T06:56:04.112Z,22.23
2022-10-19T06:58:31.703Z,21.52
2022-10-19T07:01:00.270Z,32.80
2022-10-19T07:03:28.390Z,21.38
2022-10-19T07:05:59.963Z,26.05
2022-10-19T07:08:28.383Z,21.40
2022-10-19T07:11:00.264Z,24.60
2022-10-19T07:13:28.646Z,21.25
2022-10-19T07:16:01.077Z,22.05
2022-10-19T07:18:28.839Z,22.17
2022-10-19T07:21:00.619Z,20.95
2022-10-19T07:23:29.507Z,23.90
2022-10-19T07:26:01.792Z,21.20
2022-10-19T07:28:30.277Z,58.15
2022-10-19T07:30:57.907Z,14.90
2022-10-19T07:33:25.587Z,17.13
2022-10-19T07:35:59.156Z,15.52
2022-10-19T07:38:26.901Z,16.45
2022-10-19T07:41:00.853Z,14.13
2022-10-19T07:43:28.575Z,16.15
2022-10-19T07:46:03.027Z,18.05
2022-10-19T07:48:30.773Z,15.15
2022-10-19T07:50:58.439Z,19.05
2022-10-19T07:53:26.128Z,14.75
2022-10-19T07:55:54.181Z,18.27
2022-10-19T07:58:22.044Z,17.30
2022-10-19T08:00:51.953Z,18.50
2022-10-19T08:06:09.535Z,16.40
2022-10-19T08:08:38.348Z,16.33
2022-10-19T08:11:10.110Z,17.77
2022-10-19T08:13:38.358Z,17.48
2022-10-19T08:16:06.454Z,14.90
2022-10-19T08:18:41.656Z,21.67
2022-10-19T08:21:09.303Z,15.27
2022-10-19T08:23:36.992Z,16.65
2022-10-19T08:26:07.179Z,16.13
2022-10-19T08:28:34.822Z,13.97
2022-10-19T08:31:10.236Z,19.88
2022-10-19T08:33:38.003Z,13.38
2022-10-19T08:36:06.653Z,15.07
2022-10-19T08:38:35.483Z,15.60
2022-10-19T08:41:28.789Z,13.32
2022-10-19T08:44:07.736Z,12.80
2022-10-19T08:46:49.920Z,13.88
2022-10-19T08:49:19.817Z,16.58
2022-10-19T08:51:50.414Z,13.43
2022-10-19T08:54:19.002Z,18.15
2022-10-19T08:56:51.542Z,13.50
2022-10-19T08:59:24.622Z,18.40
2022-10-19T09:02:05.133Z,13.02
2022-10-19T09:04:37.593Z,13.73
2022-10-19T09:07:17.536Z,15.30
2022-10-19T09:09:49.621Z,13.32
2022-10-19T09:12:25.547Z,20.35
2022-10-19T09:15:05.203Z,13.68
2022-10-19T09:17:33.349Z,11.98
2022-10-19T09:20:17.930Z,14.52
2022-10-19T09:22:46.391Z,10.98
2022-10-19T09:25:23.992Z,12.23
2022-10-19T09:30:30.742Z,10.43
2022-10-19T09:33:02.665Z,11.05
2022-10-19T09:35:37.040Z,11.48
2022-10-19T09:38:06.896Z,11.02
2022-10-19T09:40:35.321Z,10.63
2022-10-19T09:43:19.237Z,12.90
2022-10-19T09:45:52.986Z,10.90
2022-10-19T09:48:42.436Z,10.73
2022-10-19T09:51:14.351Z,10.35
2022-10-19T09:54:00.151Z,7.97
2022-10-19T09:56:28.525Z,8.45
2022-10-19T09:58:59.651Z,9.18
2022-10-19T10:01:41.591Z,10.38
2022-10-19T10:04:14.359Z,8.38
2022-10-19T10:06:43.468Z,11.45
2022-10-19T10:09:18.552Z,10.55
2022-10-19T10:11:48.562Z,9.73
2022-10-19T10:14:24.593Z,8.05
2022-10-19T10:16:56.406Z,7.18
2022-10-19T10:19:28.344Z,9.73
2022-10-19T10:21:57.850Z,7.47
2022-10-19T10:24:27.102Z,8.60
2022-10-19T10:27:02.744Z,9.88
2022-10-19T10:29:32.744Z,8.43
2022-10-19T10:32:06.853Z,10.15
2022-10-19T10:34:49.500Z,9.38
2022-10-19T10:37:23.287Z,8.10
2022-10-19T10:39:56.728Z,9.63
2022-10-19T10:42:56.328Z,8.50
2022-10-19T10:45:30.244Z,8.18
2022-10-19T10:47:58.579Z,10.23
2022-10-19T10:50:28.650Z,9.75
2022-10-19T10:53:01.739Z,7.57
2022-10-19T10:55:31.614Z,9.50
2022-10-19T10:58:15.155Z,8.85
2022-10-19T11:00:43.573Z,9.23
2022-10-19T11:03:23.775Z,6.53
2022-10-19T11:05:58.591Z,7.00
2022-10-19T11:11:30.356Z,5.50
2022-10-19T11:16:34.312Z,8.10
2022-10-19T11:19:17.306Z,10.52
2022-10-19T11:22:00.945Z,8.80
2022-10-19T11:24:48.648Z,7.85
2022-10-19T11:27:26.611Z,11.27
2022-10-19T11:30:11.625Z,7.50
2022-10-19T11:32:40.675Z,7.78
2022-10-19T11:35:17.444Z,6.25
2022-10-19T11:38:17.439Z,9.40
2022-10-19T11:43:58.541Z,6.25
2022-10-19T11:46:48.882Z,6.07
2022-10-19T11:49:32.660Z,8.23
2022-10-19T11:52:14.558Z,5.88
2022-10-19T11:54:59.262Z,7.60
2022-10-19T11:57:28.789Z,7.25
2022-10-19T12:00:14.821Z,8.57
2022-10-19T12:03:03.547Z,6.65
2022-10-19T12:05:44.203Z,10.52
2022-10-19T12:08:32.644Z,11.95
2022-10-19T12:11:03.443Z,7.97
2022-10-19T12:13:50.545Z,14.13
2022-10-19T12:16:19.475Z,6.95
2022-10-19T12:18:48.433Z,9.70
2022-10-19T12:21:36.750Z,7.13
2022-10-19T12:24:06.551Z,11.20
2022-10-19T12:26:36.579Z,7.20
2022-10-19T12:29:06.600Z,12.52
2022-10-19T12:31:34.356Z,12.50
2022-10-19T12:34:04.924Z,8.25
2022-10-19T12:39:07.322Z,6.70
2022-10-19T12:41:39.886Z,5.78
2022-10-19T12:44:12.889Z,10.25
2022-10-19T12:46:49.609Z,7.53
2022-10-19T12:49:29.840Z,8.85
2022-10-19T12:52:01.888Z,6.60
2022-10-19T12:54:34.509Z,8.90
2022-10-19T12:57:03.350Z,8.65
2022-10-19T12:59:35.707Z,6.20
2022-10-19T13:02:06.178Z,6.57
2022-10-19T13:07:04.186Z,7.10
2022-10-19T13:09:32.095Z,7.67
2022-10-19T13:12:19.382Z,10.32
2022-10-19T13:15:03.203Z,7.55
2022-10-19T13:17:37.314Z,7.60
2022-10-19T13:20:14.413Z,9.45
2022-10-19T13:22:46.947Z,12.05
2022-10-19T13:25:17.933Z,9.43
2022-10-19T13:27:46.537Z,7.93
2022-10-19T13:30:33.330Z,11.45
2022-10-19T13:33:00.979Z,10.98
2022-10-19T13:35:33.567Z,8.77
2022-10-19T13:38:10.686Z,12.23
2022-10-19T13:40:39.332Z,10.32
2022-10-19T13:43:17.036Z,9.73
2022-10-19T13:45:45.000Z,8.98
2022-10-19T13:48:21.522Z,10.35
2022-10-19T13:50:59.130Z,11.88
2022-10-19T13:53:35.889Z,11.63
2022-10-19T13:56:29.947Z,9.95
2022-10-19T13:59:08.662Z,10.70
2022-10-19T14:01:42.749Z,15.98
2022-10-19T14:04:18.582Z,16.77
2022-10-19T14:06:58.312Z,15.25
2022-10-19T14:09:32.178Z,17.80
2022-10-19T14:12:15.111Z,15.75
2022-10-19T14:14:43.887Z,15.90
2022-10-19T14:17:15.492Z,16.27
2022-10-19T14:19:46.734Z,13.52
2022-10-19T14:22:29.821Z,12.82
2022-10-19T14:25:05.659Z,12.23
2022-10-19T14:27:34.581Z,12.25
2022-10-19T14:30:02.701Z,23.15
2022-10-19T14:32:30.777Z,18.63
2022-10-19T14:35:00.917Z,19.42
2022-10-19T14:37:28.713Z,12.85
2022-10-19T14:40:01.311Z,18.83
2022-10-19T14:42:39.815Z,12.90
2022-10-19T14:45:13.235Z,14.55
2022-10-19T14:47:52.411Z,14.25
2022-10-19T14:50:22.359Z,12.70
2022-10-19T14:52:50.765Z,11.48
2022-10-19T14:55:19.444Z,16.67
2022-10-19T14:57:49.246Z,13.63
2022-10-19T15:00:21.828Z,13.27
2022-10-19T15:02:58.182Z,13.85
2022-10-19T15:05:28.253Z,14.63
2022-10-19T15:07:56.689Z,18.03
2022-10-19T15:10:24.350Z,17.45
2022-10-19T15:12:53.410Z,16.58
2022-10-19T15:15:25.660Z,14.85
2022-10-19T15:17:57.791Z,14.43
2022-10-19T15:20:30.451Z,12.88
2022-10-19T15:23:02.161Z,19.10
2022-10-19T15:25:33.500Z,17.05
2022-10-19T15:28:36.046Z,14.05
2022-10-19T15:31:17.675Z,16.63
2022-10-19T15:33:47.537Z,14.65
2022-10-19T15:36:18.884Z,17.77
2022-10-19T15:38:48.353Z,17.48
2022-10-19T15:41:29.872Z,15.50
2022-10-19T15:44:03.440Z,14.48
2022-10-19T15:46:33.350Z,14.60
2022-10-19T15:49:02.185Z,15.25
2022-10-19T15:51:30.097Z,17.17
2022-10-19T15:54:02.043Z,16.58
2022-10-19T15:56:31.036Z,12.27
2022-10-19T15:58:59.855Z,13.63
2022-10-19T16:01:30.160Z,11.90
2022-10-19T16:03:58.531Z,22.00
2022-10-19T16:06:28.915Z,14.30
2022-10-19T16:08:57.139Z,11.35
2022-10-19T16:11:25.265Z,14.30
2022-10-19T16:13:53.002Z,15.60
2022-10-19T16:16:31.825Z,13.15
2022-10-19T16:19:00.067Z,15.07
2022-10-19T16:21:29.663Z,17.13
2022-10-19T16:23:58.113Z,14.05
2022-10-19T16:26:38.785Z,13.95
2022-10-19T16:29:13.890Z,17.98
2022-10-19T16:34:25.708Z,13.57
2022-10-19T16:36:53.996Z,15.60
2022-10-19T16:39:21.894Z,15.40
2022-10-19T16:41:49.468Z,16.23
2022-10-19T16:44:17.050Z,16.60
2022-10-19T16:46:44.564Z,17.23
2022-10-19T16:49:17.350Z,16.33
2022-10-19T16:51:57.712Z,22.33
2022-10-19T16:54:33.875Z,17.13
2022-10-19T16:57:03.717Z,22.67
2022-10-19T16:59:35.045Z,20.27
2022-10-19T17:02:03.205Z,21.67
2022-10-19T17:04:31.418Z,16.40
2022-10-19T17:09:55.430Z,15.48
2022-10-19T17:12:30.720Z,17.75
2022-10-19T17:23:22.768Z,20.52
2022-10-19T17:28:54.343Z,17.13
2022-10-19T17:31:29.517Z,19.35
2022-10-19T17:47:40.194Z,19.38
2022-10-19T18:09:24.834Z,24.30
2022-10-19T18:23:22.051Z,23.25
2022-10-19T18:28:39.586Z,22.42
2022-10-19T18:34:24.177Z,26.10
2022-10-19T18:36:57.002Z,27.00
2022-10-19T18:39:31.906Z,23.17
2022-10-19T18:42:00.463Z,25.17
2022-10-19T18:44:35.965Z,22.35
2022-10-19T18:50:00.585Z,19.58
2022-10-19T18:52:36.171Z,25.88
2022-10-19T18:55:08.438Z,22.13
2022-10-19T18:57:40.791Z,27.17
2022-10-19T19:00:13.208Z,20.58
2022-10-19T19:02:47.514Z,20.33
2022-10-19T19:08:21.878Z,21.73
2022-10-19T19:10:56.066Z,19.92
2022-10-19T19:13:29.161Z,21.50
2022-10-19T19:16:01.144Z,18.85
2022-10-19T19:18:29.436Z,22.83
2022-10-19T19:20:57.371Z,23.98
2022-10-19T19:23:43.419Z,23.08
2022-10-19T19:26:15.962Z,19.95
2022-10-19T19:28:47.635Z,22.23
2022-10-19T19:31:19.533Z,20.52
2022-10-19T19:33:53.828Z,19.75
2022-10-19T19:36:25.774Z,17.33
2022-10-19T19:38:57.455Z,19.00
2022-10-19T19:41:27.387Z,18.83
2022-10-19T19:44:05.180Z,17.58
2022-10-19T19:46:36.029Z,19.80
2022-10-19T19:49:11.849Z,16.00
2022-10-19T19:51:42.302Z,12.32
2022-10-19T19:54:14.824Z,18.23
2022-10-19T19:56:42.782Z,12.82
2022-10-19T19:59:12.310Z,10.43
2022-10-19T20:01:43.841Z,10.32
2022-10-19T20:04:12.641Z,11.93
2022-10-19T20:06:41.223Z,13.20
2022-10-19T20:09:14.538Z,10.23
2022-10-19T20:11:43.049Z,13.88
2022-10-19T20:14:18.622Z,9.82
2022-10-19T20:16:53.323Z,9.25
2022-10-19T20:19:24.583Z,8.57
2022-10-19T20:21:59.993Z,10.55
2022-10-19T20:24:33.042Z,9.38
2022-10-19T20:27:03.482Z,14.15
2022-10-19T20:29:37.317Z,9.05
2022-10-19T20:32:12.826Z,9.35
2022-10-19T20:34:43.028Z,9.13
2022-10-19T20:37:18.246Z,10.03
2022-10-19T20:39:48.320Z,8.30
2022-10-19T20:42:24.628Z,13.37
2022-10-19T20:44:54.668Z,8.63
2022-10-19T20:47:29.739Z,12.07
2022-10-19T20:50:00.875Z,10.52
2022-10-19T20:52:32.482Z,11.13
2022-10-19T20:55:00.426Z,7.22
2022-10-19T20:57:28.689Z,9.50
2022-10-19T21:00:04.567Z,8.18
2022-10-19T21:02:36.388Z,8.65
2022-10-19T21:05:05.539Z,10.48
2022-10-19T21:07:36.460Z,8.52
2022-10-19T21:12:31.763Z,10.57
2022-10-19T21:14:59.568Z,9.20
2022-10-19T21:17:27.383Z,12.27
2022-10-19T21:19:57.278Z,9.05
2022-10-19T21:22:28.843Z,13.03
2022-10-19T21:24:56.595Z,11.80
2022-10-19T21:27:24.300Z,9.30
2022-10-19T21:29:52.855Z,11.48
2022-10-19T21:32:22.960Z,12.45
2022-10-19T21:34:51.021Z,8.15
2022-10-19T21:37:22.450Z,15.27
2022-10-19T21:39:50.109Z,9.63
2022-10-19T21:42:17.918Z,12.13
2022-10-19T21:44:45.578Z,13.43
2022-10-19T21:47:13.618Z,12.13
2022-10-19T21:49:41.357Z,8.57
2022-10-19T21:52:10.558Z,14.35
2022-10-19T21:54:41.622Z,9.60
2022-10-19T21:57:09.515Z,11.43
2022-10-19T21:59:37.234Z,12.02
2022-10-19T22:02:05.311Z,11.93
2022-10-19T22:04:33.117Z,9.98
2022-10-19T22:07:01.494Z,11.18
2022-10-19T22:09:29.762Z,10.68
2022-10-19T22:11:57.514Z,9.60
2022-10-19T22:14:25.802Z,8.80
2022-10-19T22:16:53.572Z,8.52
2022-10-19T22:19:21.519Z,10.93
2022-10-19T22:21:49.355Z,10.85
2022-10-19T22:24:17.335Z,8.52
2022-10-19T22:26:46.873Z,11.90
2022-10-19T22:29:14.754Z,10.45
2022-10-19T22:31:42.508Z,13.70
2022-10-19T22:34:11.890Z,10.45
2022-10-19T22:36:39.955Z,10.57
2022-10-19T22:39:07.780Z,13.77
2022-10-19T22:41:35.753Z,12.55
2022-10-19T22:44:41.199Z,16.02
2022-10-19T22:48:05.055Z,10.20
2022-10-19T22:51:47.755Z,13.35
2022-10-19T22:54:34.072Z,13.82
2022-10-19T22:57:02.004Z,14.55
2022-10-19T22:59:30.117Z,12.07
2022-10-19T23:01:58.317Z,10.77
2022-10-19T23:04:26.622Z,13.15
2022-10-19T23:06:55.210Z,10.48
2022-10-19T23:09:23.829Z,11.43
2022-10-19T23:11:51.657Z,13.02
2022-10-19T23:14:19.425Z,9.75
2022-10-19T23:16:47.056Z,12.43
2022-10-19T23:19:14.638Z,9.85
2022-10-19T23:21:43.693Z,11.40
2022-10-19T23:24:11.451Z,9.68
2022-10-19T23:26:39.154Z,13.45
2022-10-19T23:29:07.165Z,12.80
2022-10-19T23:31:34.991Z,10.38
2022-10-19T23:34:02.911Z,11.85
2022-10-19T23:36:30.580Z,12.77
2022-10-19T23:38:58.947Z,10.55
2022-10-19T23:41:26.713Z,13.63
2022-10-19T23:43:54.810Z,12.27
2022-10-19T23:46:22.441Z,10.70
2022-10-19T23:48:50.146Z,11.68
2022-10-19T23:51:19.692Z,13.27
2022-10-19T23:53:48.627Z,14.00
2022-10-19T23:56:19.666Z,17.00
2022-10-19T23:58:47.714Z,11.25
